sensor_id;sensor_type;location;lat;lon;timestamp;pressure;altitude;pressure_sealevel;temperature;humidity
26697;BME280;14312;52.614;13.496;2023-04-29T00:02:06;100347.63;;;15.59;53.99
26697;BME280;14312;52.614;13.496;2023-04-29T00:04:53;100330.16;;;15.56;54.20
26697;BME280;14312;52.614;13.496;2023-04-29T00:07:39;100334.47;;;15.57;54.00
26697;BME280;14312;52.614;13.496;2023-04-29T00:10:25;100332.06;;;15.56;54.21
26697;BME280;14312;52.614;13.496;2023-04-29T00:13:11;100328.28;;;15.57;54.17
26697;BME280;14312;52.614;13.496;2023-04-29T00:15:58;100318.91;;;15.54;54.17
26697;BME280;14312;52.614;13.496;2023-04-29T00:18:44;100314.34;;;15.55;54.24
26697;BME280;14312;52.614;13.496;2023-04-29T00:21:30;100318.13;;;15.54;54.22
26697;BME280;14312;52.614;13.496;2023-04-29T00:24:17;100311.38;;;15.51;54.30
26697;BME280;14312;52.614;13.496;2023-04-29T00:27:03;100318.13;;;15.54;54.44
26697;BME280;14312;52.614;13.496;2023-04-29T00:29:50;100313.81;;;15.53;54.54
26697;BME280;14312;52.614;13.496;2023-04-29T00:32:36;100300.41;;;15.53;54.61
26697;BME280;14312;52.614;13.496;2023-04-29T00:35:22;100307.38;;;15.54;54.46
26697;BME280;14312;52.614;13.496;2023-04-29T00:38:08;100295.81;;;15.53;54.52
26697;BME280;14312;52.614;13.496;2023-04-29T00:40:54;100301.44;;;15.52;54.47
26697;BME280;14312;52.614;13.496;2023-04-29T00:43:40;100299.31;;;15.49;54.54
26697;BME280;14312;52.614;13.496;2023-04-29T00:46:26;100299.88;;;15.46;54.62
26697;BME280;14312;52.614;13.496;2023-04-29T00:49:13;100296.66;;;15.44;54.64
26697;BME280;14312;52.614;13.496;2023-04-29T00:51:59;100295.63;;;15.40;54.39
26697;BME280;14312;52.614;13.496;2023-04-29T00:54:46;100304.22;;;15.37;54.61
26697;BME280;14312;52.614;13.496;2023-04-29T00:57:33;100304.00;;;15.33;54.92
26697;BME280;14312;52.614;13.496;2023-04-29T01:00:19;100302.66;;;15.31;54.82
26697;BME280;14312;52.614;13.496;2023-04-29T01:03:06;100307.50;;;15.28;55.13
26697;BME280;14312;52.614;13.496;2023-04-29T01:15:15;100302.72;;;15.20;55.25
26697;BME280;14312;52.614;13.496;2023-04-29T01:18:09;100297.94;;;15.17;55.35
26697;BME280;14312;52.614;13.496;2023-04-29T01:20:57;100293.09;;;15.14;54.87
26697;BME280;14312;52.614;13.496;2023-04-29T01:23:44;100278.38;;;15.12;55.16
26697;BME280;14312;52.614;13.496;2023-04-29T01:26:32;100262.81;;;15.09;55.39
26697;BME280;14312;52.614;13.496;2023-04-29T01:29:27;100278.13;;;15.08;56.10
26697;BME280;14312;52.614;13.496;2023-04-29T01:32:28;100287.25;;;15.07;56.46
26697;BME280;14312;52.614;13.496;2023-04-29T01:35:39;100290.50;;;15.04;55.35
26697;BME280;14312;52.614;13.496;2023-04-29T01:38:26;100306.06;;;15.02;55.88
26697;BME280;14312;52.614;13.496;2023-04-29T01:41:22;100297.50;;;15.00;55.96
26697;BME280;14312;52.614;13.496;2023-04-29T01:44:15;100296.44;;;14.96;55.82
26697;BME280;14312;52.614;13.496;2023-04-29T01:47:04;100297.53;;;14.95;56.27
26697;BME280;14312;52.614;13.496;2023-04-29T01:49:50;100287.06;;;14.94;56.28
26697;BME280;14312;52.614;13.496;2023-04-29T01:52:37;100269.13;;;14.89;56.42
26697;BME280;14312;52.614;13.496;2023-04-29T01:55:23;100265.09;;;14.86;56.17
26697;BME280;14312;52.614;13.496;2023-04-29T01:58:10;100268.84;;;14.85;56.37
26697;BME280;14312;52.614;13.496;2023-04-29T02:00:56;100270.22;;;14.83;56.39
26697;BME280;14312;52.614;13.496;2023-04-29T02:03:42;100274.53;;;14.79;56.43
26697;BME280;14312;52.614;13.496;2023-04-29T02:06:27;100277.78;;;14.76;56.48
26697;BME280;14312;52.614;13.496;2023-04-29T02:09:13;100277.25;;;14.74;56.44
26697;BME280;14312;52.614;13.496;2023-04-29T02:11:59;100277.00;;;14.70;56.58
26697;BME280;14312;52.614;13.496;2023-04-29T02:14:45;100275.66;;;14.68;56.82
26697;BME280;14312;52.614;13.496;2023-04-29T02:17:33;100275.13;;;14.66;57.25
26697;BME280;14312;52.614;13.496;2023-04-29T02:20:19;100265.50;;;14.60;58.06
26697;BME280;14312;52.614;13.496;2023-04-29T02:23:05;100267.44;;;14.54;58.61
26697;BME280;14312;52.614;13.496;2023-04-29T02:25:51;100267.72;;;14.47;58.83
26697;BME280;14312;52.614;13.496;2023-04-29T02:28:37;100268.28;;;14.39;58.42
26697;BME280;14312;52.614;13.496;2023-04-29T02:31:23;100258.09;;;14.31;58.42
26697;BME280;14312;52.614;13.496;2023-04-29T02:34:09;100260.00;;;14.26;58.45
26697;BME280;14312;52.614;13.496;2023-04-29T02:36:55;100257.34;;;14.21;58.48
26697;BME280;14312;52.614;13.496;2023-04-29T02:39:41;100258.69;;;14.18;58.53
26697;BME280;14312;52.614;13.496;2023-04-29T02:42:27;100250.91;;;14.17;58.57
26697;BME280;14312;52.614;13.496;2023-04-29T02:45:14;100261.09;;;14.15;58.39
26697;BME280;14312;52.614;13.496;2023-04-29T02:48:00;100260.56;;;14.13;58.46
26697;BME280;14312;52.614;13.496;2023-04-29T02:50:46;100255.47;;;14.11;58.44
26697;BME280;14312;52.614;13.496;2023-04-29T02:53:32;100258.16;;;14.11;58.55
26697;BME280;14312;52.614;13.496;2023-04-29T02:56:18;100256.56;;;14.10;58.55
26697;BME280;14312;52.614;13.496;2023-04-29T02:59:04;100256.56;;;14.10;58.68
26697;BME280;14312;52.614;13.496;2023-04-29T03:01:51;100256.56;;;14.10;58.74
26697;BME280;14312;52.614;13.496;2023-04-29T03:04:39;100260.31;;;14.09;58.82
26697;BME280;14312;52.614;13.496;2023-04-29T03:07:25;100247.97;;;14.08;58.91
26697;BME280;14312;52.614;13.496;2023-04-29T03:10:11;100247.44;;;14.11;58.98
26697;BME280;14312;52.614;13.496;2023-04-29T03:12:57;100248.50;;;14.15;59.10
26697;BME280;14312;52.614;13.496;2023-04-29T03:15:43;100253.84;;;14.15;59.31
26697;BME280;14312;52.614;13.496;2023-04-29T03:18:29;100250.09;;;14.16;59.44
26697;BME280;14312;52.614;13.496;2023-04-29T03:21:15;100250.09;;;14.16;59.47
26697;BME280;14312;52.614;13.496;2023-04-29T03:24:01;100247.97;;;14.18;60.52
26697;BME280;14312;52.614;13.496;2023-04-29T03:26:46;100250.38;;;14.20;61.26
26697;BME280;14312;52.614;13.496;2023-04-29T03:29:32;100249.00;;;14.22;62.01
26697;BME280;14312;52.614;13.496;2023-04-29T03:32:18;100251.19;;;14.20;61.86
26697;BME280;14312;52.614;13.496;2023-04-29T03:35:04;100254.38;;;14.22;62.46
26697;BME280;14312;52.614;13.496;2023-04-29T03:37:50;100246.88;;;14.24;63.27
26697;BME280;14312;52.614;13.496;2023-04-29T03:40:37;100253.81;;;14.25;63.29
26697;BME280;14312;52.614;13.496;2023-04-29T03:43:23;100248.47;;;14.25;63.52
26697;BME280;14312;52.614;13.496;2023-04-29T03:46:09;100257.03;;;14.27;63.34
26697;BME280;14312;52.614;13.496;2023-04-29T03:48:55;100247.91;;;14.28;62.92
26697;BME280;14312;52.614;13.496;2023-04-29T03:51:42;100250.59;;;14.33;63.53
26697;BME280;14312;52.614;13.496;2023-04-29T03:54:30;100248.41;;;14.35;63.66
26697;BME280;14312;52.614;13.496;2023-04-29T03:57:16;100244.16;;;14.34;63.31
26697;BME280;14312;52.614;13.496;2023-04-29T04:00:02;100251.63;;;14.37;63.06
26697;BME280;14312;52.614;13.496;2023-04-29T04:02:48;100246.84;;;14.39;62.90
26697;BME280;14312;52.614;13.496;2023-04-29T04:05:34;100254.31;;;14.42;62.67
26697;BME280;14312;52.614;13.496;2023-04-29T04:08:20;100240.66;;;14.44;62.56
26697;BME280;14312;52.614;13.496;2023-04-29T04:11:06;100252.72;;;14.46;62.58
26697;BME280;14312;52.614;13.496;2023-04-29T04:13:53;100257.25;;;14.51;62.81
26697;BME280;14312;52.614;13.496;2023-04-29T04:16:39;100260.44;;;14.53;62.39
26697;BME280;14312;52.614;13.496;2023-04-29T04:19:25;100258.31;;;14.55;62.47
26697;BME280;14312;52.614;13.496;2023-04-29T04:22:11;100246.22;;;14.58;62.33
26697;BME280;14312;52.614;13.496;2023-04-29T04:24:57;100259.63;;;14.63;62.39
26697;BME280;14312;52.614;13.496;2023-04-29T04:27:43;100260.94;;;14.65;62.39
26697;BME280;14312;52.614;13.496;2023-04-29T04:30:29;100255.81;;;14.69;62.75
26697;BME280;14312;52.614;13.496;2023-04-29T04:33:15;100250.19;;;14.70;63.06
26697;BME280;14312;52.614;13.496;2023-04-29T04:36:01;100267.31;;;14.74;62.81
26697;BME280;14312;52.614;13.496;2023-04-29T04:38:47;100256.81;;;14.78;63.00
26697;BME280;14312;52.614;13.496;2023-04-29T04:41:33;100251.72;;;14.81;63.29
26697;BME280;14312;52.614;13.496;2023-04-29T04:44:19;100255.75;;;14.84;63.33
26697;BME280;14312;52.614;13.496;2023-04-29T04:47:05;100251.97;;;14.85;62.96
26697;BME280;14312;52.614;13.496;2023-04-29T04:49:51;100262.16;;;14.88;63.22
26697;BME280;14312;52.614;13.496;2023-04-29T04:52:37;100254.63;;;14.90;63.08
26697;BME280;14312;52.614;13.496;2023-04-29T04:55:23;100257.03;;;14.92;63.23
26697;BME280;14312;52.614;13.496;2023-04-29T04:58:09;100264.78;;;14.93;63.08
26697;BME280;14312;52.614;13.496;2023-04-29T05:00:55;100265.84;;;14.97;63.21
26697;BME280;14312;52.614;13.496;2023-04-29T05:03:41;100267.47;;;14.98;62.98
26697;BME280;14312;52.614;13.496;2023-04-29T05:06:27;100263.13;;;15.02;62.99
26697;BME280;14312;52.614;13.496;2023-04-29T05:09:13;100263.94;;;15.03;63.13
26697;BME280;14312;52.614;13.496;2023-04-29T05:11:59;100262.59;;;15.05;62.94
26697;BME280;14312;52.614;13.496;2023-04-29T05:14:46;100272.75;;;15.08;62.82
26697;BME280;14312;52.614;13.496;2023-04-29T05:17:32;100272.22;;;15.11;63.05
26697;BME280;14312;52.614;13.496;2023-04-29T05:20:19;100257.13;;;15.15;63.27
26697;BME280;14312;52.614;13.496;2023-04-29T05:23:06;100272.69;;;15.18;63.01
26697;BME280;14312;52.614;13.496;2023-04-29T05:25:52;100280.19;;;15.21;62.94
26697;BME280;14312;52.614;13.496;2023-04-29T05:28:38;100275.34;;;15.23;63.00
26697;BME280;14312;52.614;13.496;2023-04-29T05:31:24;100283.34;;;15.28;63.11
26697;BME280;14312;52.614;13.496;2023-04-29T05:34:10;100274.22;;;15.29;62.60
26697;BME280;14312;52.614;13.496;2023-04-29T05:36:56;100276.34;;;15.33;62.96
26697;BME280;14312;52.614;13.496;2023-04-29T05:39:42;100279.84;;;15.33;62.89
26697;BME280;14312;52.614;13.496;2023-04-29T05:42:28;100287.59;;;15.35;62.97
26697;BME280;14312;52.614;13.496;2023-04-29T05:45:15;100280.06;;;15.37;63.05
26697;BME280;14312;52.614;13.496;2023-04-29T05:48:01;100284.63;;;15.36;63.23
26697;BME280;14312;52.614;13.496;2023-04-29T05:50:47;100287.06;;;15.38;63.07
26697;BME280;14312;52.614;13.496;2023-04-29T05:53:33;100285.44;;;15.37;62.97
26697;BME280;14312;52.614;13.496;2023-04-29T05:56:20;100297.78;;;15.38;62.97
26697;BME280;14312;52.614;13.496;2023-04-29T05:59:07;100284.63;;;15.36;63.20
26697;BME280;14312;52.614;13.496;2023-04-29T06:01:52;100292.41;;;15.38;63.18
26697;BME280;14312;52.614;13.496;2023-04-29T06:04:39;100294.84;;;15.39;63.25
26697;BME280;14312;52.614;13.496;2023-04-29T06:07:26;100294.03;;;15.39;63.33
26697;BME280;14312;52.614;13.496;2023-04-29T06:10:12;100295.63;;;15.40;63.32
26697;BME280;14312;52.614;13.496;2023-04-29T06:12:58;100309.56;;;15.42;63.49
26697;BME280;14312;52.614;13.496;2023-04-29T06:15:44;100302.84;;;15.44;63.50
26697;BME280;14312;52.614;13.496;2023-04-29T06:18:30;100310.63;;;15.46;63.28
26697;BME280;14312;52.614;13.496;2023-04-29T06:21:16;100301.50;;;15.47;63.52
26697;BME280;14312;52.614;13.496;2023-04-29T06:24:02;100299.31;;;15.49;63.46
26697;BME280;14312;52.614;13.496;2023-04-29T06:26:48;100314.06;;;15.51;63.56
26697;BME280;14312;52.614;13.496;2023-04-29T06:29:34;100317.31;;;15.53;63.54
26697;BME280;14312;52.614;13.496;2023-04-29T06:32:20;100315.16;;;15.55;63.67
26697;BME280;14312;52.614;13.496;2023-04-29T06:35:06;100314.84;;;15.57;63.85
26697;BME280;14312;52.614;13.496;2023-04-29T06:37:52;100320.75;;;15.59;63.64
26697;BME280;14312;52.614;13.496;2023-04-29T06:40:38;100319.41;;;15.61;63.46
26697;BME280;14312;52.614;13.496;2023-04-29T06:43:27;100325.56;;;15.62;63.32
26697;BME280;14312;52.614;13.496;2023-04-29T06:46:13;100329.34;;;15.61;63.61
26697;BME280;14312;52.614;13.496;2023-04-29T06:48:59;100333.88;;;15.65;63.55
26697;BME280;14312;52.614;13.496;2023-04-29T06:51:45;100333.88;;;15.65;63.61
26697;BME280;14312;52.614;13.496;2023-04-29T06:54:31;100334.66;;;15.66;63.39
26697;BME280;14312;52.614;13.496;2023-04-29T06:57:17;100333.88;;;15.65;63.38
26697;BME280;14312;52.614;13.496;2023-04-29T07:00:04;100343.00;;;15.64;63.33
26697;BME280;14312;52.614;13.496;2023-04-29T07:02:50;100340.31;;;15.64;63.40
26697;BME280;14312;52.614;13.496;2023-04-29T07:05:36;100351.06;;;15.64;63.46
26697;BME280;14312;52.614;13.496;2023-04-29T07:08:25;100354.06;;;15.63;63.54
26697;BME280;14312;52.614;13.496;2023-04-29T07:11:11;100363.19;;;15.62;63.68
26697;BME280;14312;52.614;13.496;2023-04-29T07:13:57;100359.97;;;15.60;63.66
26697;BME280;14312;52.614;13.496;2023-04-29T07:16:43;100363.72;;;15.59;63.35
26697;BME280;14312;52.614;13.496;2023-04-29T07:19:29;100363.72;;;15.59;63.69
26697;BME280;14312;52.614;13.496;2023-04-29T07:22:15;100363.72;;;15.59;63.63
26697;BME280;14312;52.614;13.496;2023-04-29T07:25:01;100370.97;;;15.58;63.44
26697;BME280;14312;52.614;13.496;2023-04-29T07:27:47;100370.19;;;15.58;63.38
26697;BME280;14312;52.614;13.496;2023-04-29T07:30:33;100380.41;;;15.56;63.49
26697;BME280;14312;52.614;13.496;2023-04-29T07:33:19;100374.25;;;15.55;63.71
26697;BME280;14312;52.614;13.496;2023-04-29T07:36:05;100383.09;;;15.56;63.57
26697;BME280;14312;52.614;13.496;2023-04-29T07:38:52;100393.31;;;15.54;63.54
26697;BME280;14312;52.614;13.496;2023-04-29T07:41:38;100390.06;;;15.52;63.27
26697;BME280;14312;52.614;13.496;2023-04-29T07:44:24;100399.19;;;15.51;63.41
26697;BME280;14312;52.614;13.496;2023-04-29T07:47:10;100395.97;;;15.49;63.29
26697;BME280;14312;52.614;13.496;2023-04-29T07:49:56;100404.34;;;15.47;63.29
26697;BME280;14312;52.614;13.496;2023-04-29T07:52:43;100412.66;;;15.46;63.54
26697;BME280;14312;52.614;13.496;2023-04-29T07:55:28;100414.53;;;15.45;63.32
26697;BME280;14312;52.614;13.496;2023-04-29T07:58:15;100414.00;;;15.43;63.21
26697;BME280;14312;52.614;13.496;2023-04-29T08:01:08;100422.34;;;15.42;63.96
26697;BME280;14312;52.614;13.496;2023-04-29T08:03:54;100433.09;;;15.42;63.25
26697;BME280;14312;52.614;13.496;2023-04-29T08:06:40;100434.19;;;15.41;63.19
26697;BME280;14312;52.614;13.496;2023-04-29T08:09:26;100440.91;;;15.38;63.15
26697;BME280;14312;52.614;13.496;2023-04-29T08:12:12;100448.69;;;15.35;63.23
26697;BME280;14312;52.614;13.496;2023-04-29T08:14:58;100451.94;;;15.32;63.25
26697;BME280;14312;52.614;13.496;2023-04-29T08:17:44;100451.41;;;15.29;62.78
26697;BME280;14312;52.614;13.496;2023-04-29T08:20:30;100456.25;;;15.27;62.85
26697;BME280;14312;52.614;13.496;2023-04-29T08:23:16;100461.38;;;15.24;63.00
26697;BME280;14312;52.614;13.496;2023-04-29T08:26:02;100462.72;;;15.21;63.03
26697;BME280;14312;52.614;13.496;2023-04-29T08:28:48;100474.00;;;15.18;63.21
26697;BME280;14312;52.614;13.496;2023-04-29T08:31:34;100480.44;;;15.17;63.01
26697;BME280;14312;52.614;13.496;2023-04-29T08:34:20;100491.72;;;15.14;62.88
26697;BME280;14312;52.614;13.496;2023-04-29T08:37:06;100489.34;;;15.13;63.29
26697;BME280;14312;52.614;13.496;2023-04-29T08:39:52;100497.66;;;15.11;63.50
26697;BME280;14312;52.614;13.496;2023-04-29T08:42:38;100505.16;;;15.09;63.43
26697;BME280;14312;52.614;13.496;2023-04-29T08:45:26;100506.78;;;15.10;63.86
26697;BME280;14312;52.614;13.496;2023-04-29T08:48:14;100512.16;;;15.10;63.52
26697;BME280;14312;52.614;13.496;2023-04-29T08:51:00;100515.91;;;15.09;63.49
26697;BME280;14312;52.614;13.496;2023-04-29T08:53:47;100525.03;;;15.08;63.34
26697;BME280;14312;52.614;13.496;2023-04-29T08:56:33;100528.78;;;15.07;63.24
26697;BME280;14312;52.614;13.496;2023-04-29T08:59:19;100534.72;;;15.04;63.14
26697;BME280;14312;52.614;13.496;2023-04-29T09:02:08;100536.84;;;15.02;63.34
26697;BME280;14312;52.614;13.496;2023-04-29T09:05:04;100547.88;;;14.96;63.55
26697;BME280;14312;52.614;13.496;2023-04-29T09:07:52;100549.75;;;14.90;63.21
26697;BME280;14312;52.614;13.496;2023-04-29T09:10:41;100552.44;;;14.85;63.36
26697;BME280;14312;52.614;13.496;2023-04-29T09:13:29;100561.03;;;14.77;63.05
26697;BME280;14312;52.614;13.496;2023-04-29T09:16:16;100565.59;;;14.71;62.94
26697;BME280;14312;52.614;13.496;2023-04-29T09:19:02;100582.50;;;14.67;62.88
26697;BME280;14312;52.614;13.496;2023-04-29T09:21:53;100574.97;;;14.59;63.69
26697;BME280;14312;52.614;13.496;2023-04-29T09:24:41;100571.50;;;14.53;62.95
26697;BME280;14312;52.614;13.496;2023-04-29T09:27:28;100583.28;;;14.47;62.97
26697;BME280;14312;52.614;13.496;2023-04-29T09:30:14;100585.16;;;14.41;63.18
26697;BME280;14312;52.614;13.496;2023-04-29T09:33:07;100588.84;;;14.35;63.91
26697;BME280;14312;52.614;13.496;2023-04-29T09:35:53;100595.84;;;14.31;63.29
26697;BME280;14312;52.614;13.496;2023-04-29T09:38:53;100600.13;;;14.27;64.49
26697;BME280;14312;52.614;13.496;2023-04-29T09:41:42;100598.50;;;14.26;63.60
26697;BME280;14312;52.614;13.496;2023-04-29T09:44:41;100601.72;;;14.23;63.74
26697;BME280;14312;52.614;13.496;2023-04-29T09:47:29;100608.13;;;14.22;63.77
26697;BME280;14312;52.614;13.496;2023-04-29T09:50:16;100612.69;;;14.22;63.65
26697;BME280;14312;52.614;13.496;2023-04-29T09:53:06;100616.72;;;14.24;63.79
26697;BME280;14312;52.614;13.496;2023-04-29T09:56:00;100616.72;;;14.24;63.87
26697;BME280;14312;52.614;13.496;2023-04-29T09:58:46;100626.94;;;14.27;63.84
26697;BME280;14312;52.614;13.496;2023-04-29T10:01:33;100624.25;;;14.32;64.16
26697;BME280;14312;52.614;13.496;2023-04-29T10:04:21;100628.00;;;14.36;64.24
26697;BME280;14312;52.614;13.496;2023-04-29T10:07:08;100638.78;;;14.41;64.08
26697;BME280;14312;52.614;13.496;2023-04-29T10:09:58;100645.22;;;14.45;63.88
26697;BME280;14312;52.614;13.496;2023-04-29T10:12:45;100644.16;;;14.52;64.02
26697;BME280;14312;52.614;13.496;2023-04-29T10:15:38;100645.25;;;14.56;63.92
26697;BME280;14312;52.614;13.496;2023-04-29T10:18:35;100648.44;;;14.58;64.27
26697;BME280;14312;52.614;13.496;2023-04-29T10:21:27;100653.28;;;14.61;64.29
26697;BME280;14312;52.614;13.496;2023-04-29T10:24:16;100660.53;;;14.65;63.89
26697;BME280;14312;52.614;13.496;2023-04-29T10:27:06;100656.25;;;14.69;63.93
26697;BME280;14312;52.614;13.496;2023-04-29T10:30:01;100650.34;;;14.72;63.81
26697;BME280;14312;52.614;13.496;2023-04-29T10:32:50;100660.31;;;14.77;63.52
26697;BME280;14312;52.614;13.496;2023-04-29T10:35:36;100661.91;;;14.83;63.65
26697;BME280;14312;52.614;13.496;2023-04-29T10:38:30;100669.44;;;14.91;64.00
26697;BME280;14312;52.614;13.496;2023-04-29T10:41:22;100664.31;;;14.95;63.82
26697;BME280;14312;52.614;13.496;2023-04-29T10:44:10;100674.25;;;15.04;63.76
26697;BME280;14312;52.614;13.496;2023-04-29T10:47:18;100678.00;;;15.13;64.32
26697;BME280;14312;52.614;13.496;2023-04-29T10:50:04;100674.78;;;15.21;63.71
26697;BME280;14312;52.614;13.496;2023-04-29T10:52:51;100680.16;;;15.32;63.80
26697;BME280;14312;52.614;13.496;2023-04-29T10:55:37;100683.34;;;15.44;63.70
26697;BME280;14312;52.614;13.496;2023-04-29T11:01:43;100685.50;;;15.72;63.83
26697;BME280;14312;52.614;13.496;2023-04-29T11:04:30;100682.75;;;15.87;63.64
26697;BME280;14312;52.614;13.496;2023-04-29T11:07:26;100678.91;;;16.09;63.67
26697;BME280;14312;52.614;13.496;2023-04-29T11:10:14;100689.03;;;16.32;63.61
26697;BME280;14312;52.614;13.496;2023-04-29T11:13:25;100692.41;;;16.58;62.89
26697;BME280;14312;52.614;13.496;2023-04-29T11:16:11;100687.81;;;16.68;61.78
26697;BME280;14312;52.614;13.496;2023-04-29T11:19:04;100692.06;;;16.74;61.42
26697;BME280;14312;52.614;13.496;2023-04-29T11:22:06;100697.72;;;16.73;60.85
26697;BME280;14312;52.614;13.496;2023-04-29T11:24:58;100694.78;;;16.69;60.82
26697;BME280;14312;52.614;13.496;2023-04-29T11:27:48;100699.66;;;16.67;61.05
26697;BME280;14312;52.614;13.496;2023-04-29T11:30:35;100696.38;;;16.70;60.83
26697;BME280;14312;52.614;13.496;2023-04-29T11:33:22;100703.38;;;16.71;61.16
26697;BME280;14312;52.614;13.496;2023-04-29T11:36:10;100707.09;;;16.80;61.56
26697;BME280;14312;52.614;13.496;2023-04-29T11:38:56;100708.38;;;16.88;61.25
26697;BME280;14312;52.614;13.496;2023-04-29T11:41:42;100712.38;;;16.96;60.76
26697;BME280;14312;52.614;13.496;2023-04-29T11:44:28;100720.94;;;17.03;60.70
26697;BME280;14312;52.614;13.496;2023-04-29T11:47:14;100719.81;;;17.09;60.19
26697;BME280;14312;52.614;13.496;2023-04-29T11:50:05;100719.25;;;17.12;59.85
26697;BME280;14312;52.614;13.496;2023-04-29T11:52:52;100719.25;;;17.12;59.91
26697;BME280;14312;52.614;13.496;2023-04-29T11:55:41;100733.22;;;17.14;59.56
26697;BME280;14312;52.614;13.496;2023-04-29T11:58:27;100736.50;;;17.11;59.39
26697;BME280;14312;52.614;13.496;2023-04-29T12:01:13;100732.75;;;17.07;59.53
26697;BME280;14312;52.614;13.496;2023-04-29T12:03:59;100743.50;;;17.07;59.43
26697;BME280;14312;52.614;13.496;2023-04-29T12:06:45;100744.03;;;17.09;59.63
26697;BME280;14312;52.614;13.496;2023-04-29T12:09:41;100745.38;;;17.11;59.56
26697;BME280;14312;52.614;13.496;2023-04-29T12:12:28;100757.19;;;17.15;59.76
26697;BME280;14312;52.614;13.496;2023-04-29T12:15:16;100752.84;;;17.19;59.67
26697;BME280;14312;52.614;13.496;2023-04-29T12:18:02;100765.50;;;17.24;59.48
26697;BME280;14312;52.614;13.496;2023-04-29T12:20:49;100756.31;;;17.25;59.46
26697;BME280;14312;52.614;13.496;2023-04-29T12:23:40;100767.31;;;17.29;59.18
26697;BME280;14312;52.614;13.496;2023-04-29T12:26:31;100755.75;;;17.28;58.97
26697;BME280;14312;52.614;13.496;2023-04-29T12:29:20;100765.97;;;17.31;59.24
26697;BME280;14312;52.614;13.496;2023-04-29T12:32:12;100764.09;;;17.32;58.84
26697;BME280;14312;52.614;13.496;2023-04-29T12:35:01;100772.38;;;17.35;59.17
26697;BME280;14312;52.614;13.496;2023-04-29T12:37:50;100777.22;;;17.38;59.08
26697;BME280;14312;52.614;13.496;2023-04-29T12:40:36;100782.34;;;17.40;59.06
26697;BME280;14312;52.614;13.496;2023-04-29T12:43:29;100787.44;;;17.41;58.60
26697;BME280;14312;52.614;13.496;2023-04-29T12:46:15;100779.34;;;17.41;59.14
26697;BME280;14312;52.614;13.496;2023-04-29T12:49:03;100783.63;;;17.47;59.26
26697;BME280;14312;52.614;13.496;2023-04-29T12:51:49;100781.41;;;17.54;59.20
26697;BME280;14312;52.614;13.496;2023-04-29T12:54:36;100783.50;;;17.63;58.80
26697;BME280;14312;52.614;13.496;2023-04-29T12:57:22;100786.19;;;17.68;58.63
26697;BME280;14312;52.614;13.496;2023-04-29T13:00:10;100783.97;;;17.75;58.41
26697;BME280;14312;52.614;13.496;2023-04-29T13:02:56;100796.31;;;17.81;58.21
26697;BME280;14312;52.614;13.496;2023-04-29T13:05:42;100797.31;;;17.85;58.48
26697;BME280;14312;52.614;13.496;2023-04-29T13:08:28;100789.22;;;17.90;58.00
26697;BME280;14312;52.614;13.496;2023-04-29T13:11:14;100788.34;;;17.94;58.00
26697;BME280;14312;52.614;13.496;2023-04-29T13:14:00;100785.06;;;17.97;57.97
26697;BME280;14312;52.614;13.496;2023-04-29T13:16:46;100787.47;;;17.99;57.15
26697;BME280;14312;52.614;13.496;2023-04-29T13:19:32;100793.69;;;17.99;57.59
26697;BME280;14312;52.614;13.496;2023-04-29T13:22:18;100793.41;;;18.01;57.27
26697;BME280;14312;52.614;13.496;2023-04-29T13:25:04;100799.06;;;17.99;57.09
26697;BME280;14312;52.614;13.496;2023-04-29T13:27:51;100800.47;;;17.97;57.06
26697;BME280;14312;52.614;13.496;2023-04-29T13:30:37;100800.47;;;17.97;57.09
26697;BME280;14312;52.614;13.496;2023-04-29T13:33:22;100812.28;;;18.01;57.39
26697;BME280;14312;52.614;13.496;2023-04-29T13:36:09;100813.31;;;18.05;57.17
26697;BME280;14312;52.614;13.496;2023-04-29T13:38:55;100823.53;;;18.08;56.79
26697;BME280;14312;52.614;13.496;2023-04-29T13:41:41;100813.78;;;18.12;56.58
26697;BME280;14312;52.614;13.496;2023-04-29T13:44:26;100817.00;;;18.14;56.65
26697;BME280;14312;52.614;13.496;2023-04-29T13:47:12;100825.03;;;18.19;56.79
26697;BME280;14312;52.614;13.496;2023-04-29T13:49:58;100823.91;;;18.25;56.69
26697;BME280;14312;52.614;13.496;2023-04-29T13:52:44;100819.53;;;18.29;55.99
26697;BME280;14312;52.614;13.496;2023-04-29T13:55:30;100825.19;;;18.33;55.78
26697;BME280;14312;52.614;13.496;2023-04-29T13:58:19;100821.38;;;18.34;56.02
26697;BME280;14312;52.614;13.496;2023-04-29T14:01:05;100825.13;;;18.38;55.75
26697;BME280;14312;52.614;13.496;2023-04-29T14:03:51;100826.22;;;18.37;55.65
26697;BME280;14312;52.614;13.496;2023-04-29T14:06:37;100821.03;;;18.40;55.53
26697;BME280;14312;52.614;13.496;2023-04-29T14:09:23;100825.31;;;18.47;55.68
26697;BME280;14312;52.614;13.496;2023-04-29T14:12:09;100825.78;;;18.49;55.08
26697;BME280;14312;52.614;13.496;2023-04-29T14:14:55;100832.81;;;18.50;54.79
26697;BME280;14312;52.614;13.496;2023-04-29T14:17:42;100829.09;;;18.46;54.85
26697;BME280;14312;52.614;13.496;2023-04-29T14:20:29;100840.44;;;18.43;55.00
26697;BME280;14312;52.614;13.496;2023-04-29T14:23:15;100846.72;;;18.38;54.98
26697;BME280;14312;52.614;13.496;2023-04-29T14:26:01;100850.25;;;18.33;54.71
26697;BME280;14312;52.614;13.496;2023-04-29T14:28:47;100844.34;;;18.31;55.42
26697;BME280;14312;52.614;13.496;2023-04-29T14:31:34;100851.34;;;18.32;55.38
26697;BME280;14312;52.614;13.496;2023-04-29T14:34:23;100852.94;;;18.33;55.52
26697;BME280;14312;52.614;13.496;2023-04-29T14:37:09;100852.63;;;18.40;55.50